Time;durP1;ratioP1;P1;durP2;ratioP2;P2;SDS_P1;SDS_P2;PMS_P1;PMS_P2;Temp;Humidity;BMP_temperature;BMP_pressure;BME280_temperature;BME280_humidity;BME280_pressure;Samples;Min_cycle;Max_cycle;Signal;HPM_P1;HPM_P2
2023/03/01 00:00:07;;;;;;;15.45;12.10;;;;;;;;;;5008435;28;99454;-76
2023/03/01 00:02:36;;;;;;;14.65;10.85;;;;;;;;;;5021181;28;98915;-76
2023/03/01 00:05:07;;;;;;;15.07;12.07;;;;;;;;;;5030697;27;99232;-76
2023/03/01 00:07:33;;;;;;;16.67;11.00;;;;;;;;;;5024042;27;99491;-76
2023/03/01 00:09:59;;;;;;;13.05;10.50;;;;;;;;;;5031348;28;98223;-76
2023/03/01 00:12:27;;;;;;;12.57;10.80;;;;;;;;;;5030766;27;98737;-76
2023/03/01 00:14:53;;;;;;;12.45;11.18;;;;;;;;;;5028897;27;99104;-76
2023/03/01 00:17:20;;;;;;;11.68;10.48;;;;;;;;;;5029810;27;98979;-76
2023/03/01 00:19:46;;;;;;;13.63;10.55;;;;;;;;;;5021051;28;99632;-76
2023/03/01 00:22:13;;;;;;;13.38;11.07;;;;;;;;;;5010314;28;98052;-76
2023/03/01 00:24:39;;;;;;;13.75;10.30;;;;;;;;;;5011046;28;98732;-76
2023/03/01 00:27:05;;;;;;;13.82;10.55;;;;;;;;;;5009838;28;100118;-77
2023/03/01 00:29:32;;;;;;;16.00;10.70;;;;;;;;;;5010696;28;98344;-76
2023/03/01 00:31:59;;;;;;;14.43;10.57;;;;;;;;;;5008642;28;99809;-76
2023/03/01 00:34:25;;;;;;;19.20;12.88;;;;;;;;;;5009637;28;98634;-76
2023/03/01 00:36:53;;;;;;;11.93;10.32;;;;;;;;;;5009531;28;98154;-76
2023/03/01 00:39:20;;;;;;;14.60;11.35;;;;;;;;;;5010775;28;98294;-77
2023/03/01 00:41:46;;;;;;;13.95;11.80;;;;;;;;;;5012272;28;99163;-78
2023/03/01 00:44:12;;;;;;;16.15;11.27;;;;;;;;;;5010299;28;98661;-78
2023/03/01 00:46:39;;;;;;;12.95;11.52;;;;;;;;;;5019780;28;99110;-76
2023/03/01 00:49:06;;;;;;;11.63;10.45;;;;;;;;;;5028340;28;99120;-75
2023/03/01 00:51:32;;;;;;;12.55;11.27;;;;;;;;;;5030806;28;98667;-77
2023/03/01 00:54:00;;;;;;;12.35;11.07;;;;;;;;;;5016562;28;98251;-76
2023/03/01 00:56:27;;;;;;;15.25;11.65;;;;;;;;;;5010121;28;98259;-77
2023/03/01 00:58:54;;;;;;;16.48;11.90;;;;;;;;;;5011263;28;99375;-76
2023/03/01 01:01:22;;;;;;;17.83;11.80;;;;;;;;;;5012951;28;98971;-78
2023/03/01 01:03:49;;;;;;;22.08;12.45;;;;;;;;;;5009197;28;98418;-75
2023/03/01 01:06:17;;;;;;;16.17;13.02;;;;;;;;;;5007878;28;99479;-77
2023/03/01 01:08:43;;;;;;;16.40;12.70;;;;;;;;;;5010402;28;98153;-78
2023/03/01 01:11:11;;;;;;;17.00;13.27;;;;;;;;;;5008818;28;99358;-78
2023/03/01 01:13:38;;;;;;;14.77;11.95;;;;;;;;;;5009815;28;99057;-77
2023/03/01 01:16:06;;;;;;;20.10;13.60;;;;;;;;;;5008399;28;98162;-77
2023/03/01 01:18:32;;;;;;;14.43;12.50;;;;;;;;;;5008360;28;99381;-77
2023/03/01 01:21:03;;;;;;;16.23;12.43;;;;;;;;;;5008128;28;101057;-77
2023/03/01 01:23:29;;;;;;;15.63;12.65;;;;;;;;;;5013170;28;98137;-76
2023/03/01 01:25:56;;;;;;;15.73;12.85;;;;;;;;;;5010025;28;98975;-77
2023/03/01 01:28:22;;;;;;;14.90;11.50;;;;;;;;;;5010693;28;98298;-76
2023/03/01 01:30:50;;;;;;;18.30;12.27;;;;;;;;;;5007903;28;98532;-77
2023/03/01 01:33:16;;;;;;;16.55;12.80;;;;;;;;;;5008544;28;98728;-77
2023/03/01 01:35:44;;;;;;;13.15;11.70;;;;;;;;;;5009565;28;98199;-77
2023/03/01 01:38:11;;;;;;;15.45;11.77;;;;;;;;;;5008818;28;98415;-76
2023/03/01 01:40:45;;;;;;;16.48;13.65;;;;;;;;;;5008465;28;99078;-77
2023/03/01 01:43:25;;;;;;;14.02;12.27;;;;;;;;;;5010059;28;98241;-76
2023/03/01 01:45:54;;;;;;;16.10;12.45;;;;;;;;;;5012327;28;98172;-77
2023/03/01 01:48:23;;;;;;;18.15;13.25;;;;;;;;;;5028465;28;98285;-77
2023/03/01 01:50:53;;;;;;;17.58;13.82;;;;;;;;;;5029748;27;98642;-76
2023/03/01 01:53:20;;;;;;;15.35;13.45;;;;;;;;;;5029348;27;98897;-76
2023/03/01 01:55:50;;;;;;;17.63;14.32;;;;;;;;;;5029045;28;98869;-76
2023/03/01 01:58:19;;;;;;;16.45;13.32;;;;;;;;;;5029280;27;98560;-77
2023/03/01 02:00:46;;;;;;;17.48;14.05;;;;;;;;;;5021872;28;98995;-76
2023/03/01 02:03:17;;;;;;;18.83;14.85;;;;;;;;;;5009577;28;98235;-76
2023/03/01 02:05:50;;;;;;;20.55;14.88;;;;;;;;;;5008258;28;99918;-76
2023/03/01 02:08:22;;;;;;;15.85;13.80;;;;;;;;;;5016074;28;99040;-76
2023/03/01 02:10:50;;;;;;;18.15;14.07;;;;;;;;;;5008701;28;98744;-76
2023/03/01 02:13:16;;;;;;;18.02;14.82;;;;;;;;;;5008021;28;99220;-76
2023/03/01 02:15:43;;;;;;;23.20;14.73;;;;;;;;;;5009059;28;98352;-76
2023/03/01 02:18:11;;;;;;;18.67;15.20;;;;;;;;;;5032283;27;101193;-76
2023/03/01 02:20:56;;;;;;;17.42;15.57;;;;;;;;;;5026340;28;99180;-76
2023/03/01 02:23:23;;;;;;;17.10;14.90;;;;;;;;;;5030064;27;98602;-75
2023/03/01 02:25:56;;;;;;;21.25;14.77;;;;;;;;;;5031000;27;100362;-76
2023/03/01 02:28:29;;;;;;;21.65;15.40;;;;;;;;;;5031868;27;100589;-76
2023/03/01 02:33:42;;;;;;;19.30;17.00;;;;;;;;;;5032287;27;99903;-78
2023/03/01 02:36:13;;;;;;;21.13;16.58;;;;;;;;;;5014928;28;98265;-76
2023/03/01 02:38:43;;;;;;;25.73;17.40;;;;;;;;;;5010680;28;100976;-77
2023/03/01 02:41:11;;;;;;;22.27;16.42;;;;;;;;;;5009127;28;100093;-77
2023/03/01 02:43:38;;;;;;;19.30;15.07;;;;;;;;;;5012561;28;98255;-77
2023/03/01 02:46:08;;;;;;;22.63;17.27;;;;;;;;;;5015140;28;98259;-77
2023/03/01 02:48:42;;;;;;;18.25;16.05;;;;;;;;;;5030206;28;101771;-76
2023/03/01 02:51:10;;;;;;;19.42;15.93;;;;;;;;;;5031585;27;98287;-76
2023/03/01 02:53:55;;;;;;;22.33;17.58;;;;;;;;;;5014298;28;101070;-76
2023/03/01 02:56:22;;;;;;;17.40;15.57;;;;;;;;;;5011400;28;98479;-76
2023/03/01 02:58:51;;;;;;;18.55;15.88;;;;;;;;;;5042923;27;100455;-76
2023/03/01 03:01:19;;;;;;;22.75;17.13;;;;;;;;;;5011868;28;98910;-76
2023/03/01 03:03:46;;;;;;;19.70;16.25;;;;;;;;;;5011661;28;98504;-76
2023/03/01 03:06:13;;;;;;;18.90;16.92;;;;;;;;;;5010920;28;99621;-76
2023/03/01 03:08:40;;;;;;;19.75;16.35;;;;;;;;;;5010768;28;101447;-76
2023/03/01 03:11:07;;;;;;;21.27;16.95;;;;;;;;;;5011572;28;98949;-76
2023/03/01 03:13:33;;;;;;;22.27;16.90;;;;;;;;;;5016203;28;98309;-76
2023/03/01 03:16:01;;;;;;;19.60;16.08;;;;;;;;;;5010469;28;98396;-76
2023/03/01 03:18:28;;;;;;;19.35;17.25;;;;;;;;;;5012637;28;98986;-76
2023/03/01 03:20:54;;;;;;;20.35;16.00;;;;;;;;;;5011402;28;98552;-77
2023/03/01 03:23:21;;;;;;;20.13;17.23;;;;;;;;;;5010591;28;98275;-77
2023/03/01 03:25:49;;;;;;;20.58;16.13;;;;;;;;;;5011568;28;98842;-77
2023/03/01 03:28:15;;;;;;;24.67;17.83;;;;;;;;;;5010777;28;98929;-77
2023/03/01 03:30:42;;;;;;;27.70;18.67;;;;;;;;;;5011107;28;98331;-76
2023/03/01 03:33:09;;;;;;;22.02;18.13;;;;;;;;;;5010982;28;99822;-76
2023/03/01 03:35:43;;;;;;;24.23;18.65;;;;;;;;;;5012983;28;100298;-76
2023/03/01 03:38:15;;;;;;;23.85;17.75;;;;;;;;;;5009959;28;99510;-76
2023/03/01 03:41:00;;;;;;;19.95;17.08;;;;;;;;;;5011108;28;100008;-76
2023/03/01 03:43:27;;;;;;;19.77;17.05;;;;;;;;;;5011791;28;98299;-76
2023/03/01 03:45:53;;;;;;;28.75;17.58;;;;;;;;;;5012846;28;99416;-76
2023/03/01 03:48:20;;;;;;;24.30;16.80;;;;;;;;;;5031041;27;100052;-76
2023/03/01 03:50:49;;;;;;;23.85;17.10;;;;;;;;;;5031575;27;99111;-76
2023/03/01 03:53:15;;;;;;;25.40;18.40;;;;;;;;;;5030850;27;99949;-77
2023/03/01 03:55:41;;;;;;;18.90;16.95;;;;;;;;;;5030502;28;99943;-76
2023/03/01 03:58:09;;;;;;;18.63;16.13;;;;;;;;;;5033687;27;98798;-76
2023/03/01 04:00:38;;;;;;;21.88;16.73;;;;;;;;;;5018635;27;99120;-76
2023/03/01 04:03:04;;;;;;;25.83;17.45;;;;;;;;;;5010304;28;98262;-76
2023/03/01 04:05:31;;;;;;;22.73;19.02;;;;;;;;;;5009926;28;98408;-76
2023/03/01 04:08:06;;;;;;;19.60;17.15;;;;;;;;;;5013620;28;99008;-76
2023/03/01 04:10:35;;;;;;;21.25;16.00;;;;;;;;;;5010771;28;98313;-76
2023/03/01 04:13:02;;;;;;;25.35;17.02;;;;;;;;;;5010494;28;99365;-76
2023/03/01 04:15:28;;;;;;;23.35;16.77;;;;;;;;;;5010726;28;98928;-76
2023/03/01 04:17:55;;;;;;;19.77;16.92;;;;;;;;;;5010615;28;98191;-76
2023/03/01 04:20:26;;;;;;;21.05;17.58;;;;;;;;;;5013165;28;98518;-76
2023/03/01 04:22:59;;;;;;;23.15;17.58;;;;;;;;;;5010263;28;98635;-76
2023/03/01 04:25:26;;;;;;;26.48;18.13;;;;;;;;;;5009390;28;98623;-76
2023/03/01 04:27:52;;;;;;;21.98;16.95;;;;;;;;;;5009012;28;99293;-76
2023/03/01 04:30:18;;;;;;;27.83;17.15;;;;;;;;;;5010846;28;98255;-76
2023/03/01 04:32:45;;;;;;;22.75;16.63;;;;;;;;;;5010670;28;99449;-76
2023/03/01 04:35:11;;;;;;;23.45;17.48;;;;;;;;;;5010125;28;98918;-76
2023/03/01 04:37:38;;;;;;;18.77;16.45;;;;;;;;;;5010492;28;98232;-76
2023/03/01 04:40:23;;;;;;;22.55;17.05;;;;;;;;;;5009675;28;98504;-76
2023/03/01 04:42:49;;;;;;;25.48;18.00;;;;;;;;;;5013598;28;99565;-76
2023/03/01 04:45:15;;;;;;;19.83;16.88;;;;;;;;;;5009456;28;98386;-76
2023/03/01 04:47:44;;;;;;;20.65;16.83;;;;;;;;;;5026866;28;100002;-76
2023/03/01 04:50:11;;;;;;;20.52;17.00;;;;;;;;;;5027787;28;98329;-76
2023/03/01 04:52:38;;;;;;;24.15;17.17;;;;;;;;;;5029949;28;98788;-76
2023/03/01 04:55:05;;;;;;;21.55;17.08;;;;;;;;;;5027818;27;99383;-76
2023/03/01 04:57:31;;;;;;;21.55;16.88;;;;;;;;;;5030402;27;98150;-75
2023/03/01 04:59:58;;;;;;;28.15;17.58;;;;;;;;;;5044058;27;99448;-76
2023/03/01 05:02:24;;;;;;;22.67;18.15;;;;;;;;;;5048617;27;99269;-75
2023/03/01 05:04:51;;;;;;;24.48;17.60;;;;;;;;;;5052630;27;98063;-75
2023/03/01 05:07:20;;;;;;;21.10;16.98;;;;;;;;;;5049089;27;100040;-76
2023/03/01 05:09:47;;;;;;;27.27;16.75;;;;;;;;;;5008417;28;98590;-76
2023/03/01 05:12:14;;;;;;;21.05;17.20;;;;;;;;;;5009386;28;98901;-75
2023/03/01 05:14:41;;;;;;;21.10;17.55;;;;;;;;;;5009005;28;98970;-76
2023/03/01 05:17:07;;;;;;;23.33;17.48;;;;;;;;;;5009520;28;99106;-77
2023/03/01 05:19:34;;;;;;;21.90;17.70;;;;;;;;;;5008899;28;98857;-76
2023/03/01 05:22:03;;;;;;;24.60;17.17;;;;;;;;;;5009093;28;100003;-74
2023/03/01 05:24:31;;;;;;;22.20;17.45;;;;;;;;;;5012645;28;98240;-77
2023/03/01 05:26:58;;;;;;;28.88;18.05;;;;;;;;;;5009688;28;100200;-77
2023/03/01 05:29:25;;;;;;;22.05;17.17;;;;;;;;;;5010932;28;98334;-76
2023/03/01 05:31:55;;;;;;;26.63;19.35;;;;;;;;;;5009268;28;99630;-75
2023/03/01 05:34:25;;;;;;;23.55;18.65;;;;;;;;;;5009959;28;99910;-75
2023/03/01 05:36:52;;;;;;;27.40;18.70;;;;;;;;;;5007462;28;99221;-75
2023/03/01 05:39:23;;;;;;;23.63;19.27;;;;;;;;;;5008401;28;98571;-75
2023/03/01 05:41:53;;;;;;;25.45;20.15;;;;;;;;;;5008935;28;99208;-75
2023/03/01 05:44:20;;;;;;;23.20;19.60;;;;;;;;;;5008471;28;98264;-75
2023/03/01 05:46:46;;;;;;;24.83;19.13;;;;;;;;;;5020821;28;98506;-75
2023/03/01 05:49:13;;;;;;;27.55;20.23;;;;;;;;;;5028912;27;98564;-75
2023/03/01 05:51:41;;;;;;;25.20;19.27;;;;;;;;;;5028491;27;99385;-75
2023/03/01 05:54:07;;;;;;;29.33;19.92;;;;;;;;;;5028379;28;100007;-75
2023/03/01 05:56:34;;;;;;;28.27;20.13;;;;;;;;;;5029182;27;98208;-75
2023/03/01 05:59:01;;;;;;;29.50;20.50;;;;;;;;;;5021588;28;99512;-75
2023/03/01 06:01:27;;;;;;;31.63;19.63;;;;;;;;;;5008776;28;100159;-75
2023/03/01 06:03:53;;;;;;;29.02;19.25;;;;;;;;;;5007626;28;98246;-75
2023/03/01 06:06:20;;;;;;;23.55;19.23;;;;;;;;;;5007664;28;98528;-75
2023/03/01 06:08:46;;;;;;;27.98;20.63;;;;;;;;;;5016871;28;100238;-75
2023/03/01 06:11:13;;;;;;;23.75;19.17;;;;;;;;;;5008448;28;98495;-76
2023/03/01 06:13:40;;;;;;;27.50;20.13;;;;;;;;;;5007893;28;99942;-75
2023/03/01 06:16:07;;;;;;;23.73;20.15;;;;;;;;;;5009130;28;98287;-75
2023/03/01 06:18:33;;;;;;;24.98;20.08;;;;;;;;;;5008692;28;98554;-75
2023/03/01 06:21:00;;;;;;;27.95;19.75;;;;;;;;;;5007753;28;100061;-75
2023/03/01 06:23:26;;;;;;;24.85;19.38;;;;;;;;;;5008669;28;98370;-75
2023/03/01 06:25:54;;;;;;;27.17;18.88;;;;;;;;;;5006917;28;101162;-75
2023/03/01 06:28:20;;;;;;;29.67;19.80;;;;;;;;;;5007340;28;100294;-75
2023/03/01 06:30:47;;;;;;;24.23;18.95;;;;;;;;;;5011711;28;98278;-75
2023/03/01 06:33:13;;;;;;;25.33;20.02;;;;;;;;;;5007940;28;99847;-75
2023/03/01 06:35:40;;;;;;;25.48;18.70;;;;;;;;;;5008702;28;98687;-76
2023/03/01 06:38:06;;;;;;;25.23;18.65;;;;;;;;;;5008575;28;99381;-75
2023/03/01 06:40:35;;;;;;;28.50;19.90;;;;;;;;;;5008088;28;99061;-76
2023/03/01 06:43:01;;;;;;;25.13;19.38;;;;;;;;;;5008495;28;98085;-75
2023/03/01 06:45:27;;;;;;;26.30;18.17;;;;;;;;;;5008543;28;99393;-77
2023/03/01 06:48:01;;;;;;;24.98;19.92;;;;;;;;;;5007526;28;99172;-76
2023/03/01 06:50:27;;;;;;;32.53;20.60;;;;;;;;;;5008913;28;98093;-77
2023/03/01 06:52:56;;;;;;;29.02;20.67;;;;;;;;;;5010399;28;98976;-77
2023/03/01 06:55:23;;;;;;;28.63;20.30;;;;;;;;;;5007132;28;98764;-75
2023/03/01 06:57:53;;;;;;;28.33;19.73;;;;;;;;;;5008019;28;99778;-75
2023/03/01 07:00:20;;;;;;;21.42;17.33;;;;;;;;;;5008197;28;99963;-75
2023/03/01 07:02:46;;;;;;;27.27;20.55;;;;;;;;;;5007238;28;98401;-77
2023/03/01 07:05:13;;;;;;;27.40;20.98;;;;;;;;;;5007831;28;99898;-77
2023/03/01 07:07:39;;;;;;;54.35;32.60;;;;;;;;;;5017966;28;100089;-77
2023/03/01 07:10:06;;;;;;;40.03;25.55;;;;;;;;;;5028373;27;98320;-76
2023/03/01 07:12:32;;;;;;;34.80;26.10;;;;;;;;;;5031492;28;99433;-75
2023/03/01 07:14:59;;;;;;;35.85;23.80;;;;;;;;;;5034081;28;98264;-75
2023/03/01 07:17:25;;;;;;;31.20;22.52;;;;;;;;;;5030276;28;99968;-76
2023/03/01 07:19:51;;;;;;;34.10;22.95;;;;;;;;;;5030931;28;98079;-76
2023/03/01 07:22:18;;;;;;;35.35;22.33;;;;;;;;;;5030603;28;98399;-76
2023/03/01 07:24:44;;;;;;;29.60;21.33;;;;;;;;;;5018631;28;98659;-76
2023/03/01 07:27:11;;;;;;;31.33;22.55;;;;;;;;;;5010975;28;98790;-76
2023/03/01 07:29:37;;;;;;;35.03;22.83;;;;;;;;;;5010986;28;98440;-76
2023/03/01 07:32:04;;;;;;;28.75;21.65;;;;;;;;;;5011642;28;98689;-75
2023/03/01 07:34:31;;;;;;;36.10;22.75;;;;;;;;;;5032639;27;99094;-76
2023/03/01 07:36:58;;;;;;;28.77;22.38;;;;;;;;;;5030567;27;98714;-76
2023/03/01 07:39:24;;;;;;;27.60;21.48;;;;;;;;;;5020736;27;100121;-76
2023/03/01 07:41:51;;;;;;;26.75;20.35;;;;;;;;;;5011327;28;98642;-76
2023/03/01 07:44:20;;;;;;;29.05;20.17;;;;;;;;;;5019544;27;100041;-76
2023/03/01 07:46:47;;;;;;;32.88;21.05;;;;;;;;;;5023675;28;99846;-77
2023/03/01 07:49:13;;;;;;;29.63;21.95;;;;;;;;;;5019581;27;98390;-77
2023/03/01 07:51:40;;;;;;;27.95;21.70;;;;;;;;;;5020183;28;98833;-77
2023/03/01 07:54:06;;;;;;;29.20;21.10;;;;;;;;;;5023302;27;99355;-75
2023/03/01 07:56:32;;;;;;;27.20;20.35;;;;;;;;;;5014272;28;98425;-77
2023/03/01 07:58:59;;;;;;;28.50;20.50;;;;;;;;;;5018788;28;99988;-77
2023/03/01 08:01:26;;;;;;;26.90;20.55;;;;;;;;;;5017620;28;98229;-77
2023/03/01 08:03:52;;;;;;;25.65;18.27;;;;;;;;;;5023952;28;99087;-77
2023/03/01 08:06:18;;;;;;;21.95;16.73;;;;;;;;;;5014224;27;98933;-77
2023/03/01 08:08:45;;;;;;;23.60;15.90;;;;;;;;;;5011021;27;98121;-77
2023/03/01 08:11:14;;;;;;;20.00;13.40;;;;;;;;;;5011547;28;98568;-78
2023/03/01 08:13:40;;;;;;;18.02;13.95;;;;;;;;;;5026834;28;100077;-78
2023/03/01 08:16:09;;;;;;;19.67;13.45;;;;;;;;;;5030013;28;98783;-77
2023/03/01 08:18:35;;;;;;;15.05;12.18;;;;;;;;;;5032660;27;99466;-77
2023/03/01 08:21:06;;;;;;;16.85;12.35;;;;;;;;;;5022996;27;98890;-77
2023/03/01 08:23:33;;;;;;;17.95;11.52;;;;;;;;;;5027386;28;99271;-78
2023/03/01 08:26:03;;;;;;;15.77;11.48;;;;;;;;;;5029381;27;99884;-78
2023/03/01 08:28:29;;;;;;;17.33;11.70;;;;;;;;;;5015986;27;98104;-78
2023/03/01 08:30:56;;;;;;;12.30;10.73;;;;;;;;;;5024178;27;98606;-77
2023/03/01 08:33:22;;;;;;;33.75;12.10;;;;;;;;;;5029858;27;99018;-78
2023/03/01 08:35:48;;;;;;;12.73;10.63;;;;;;;;;;5024935;27;98905;-77
2023/03/01 08:38:15;;;;;;;14.63;11.20;;;;;;;;;;5025947;27;100216;-77
2023/03/01 08:40:41;;;;;;;16.40;10.95;;;;;;;;;;5031443;27;98870;-78
2023/03/01 08:43:08;;;;;;;13.60;10.02;;;;;;;;;;5019377;27;99033;-78
2023/03/01 08:45:34;;;;;;;16.13;11.07;;;;;;;;;;5010787;27;98358;-77
2023/03/01 08:48:01;;;;;;;15.48;9.63;;;;;;;;;;5017119;28;100180;-79
2023/03/01 08:50:27;;;;;;;16.73;10.45;;;;;;;;;;5016170;28;99302;-78
2023/03/01 08:52:53;;;;;;;9.15;7.10;;;;;;;;;;5009544;28;99197;-77
2023/03/01 08:55:20;;;;;;;11.88;10.30;;;;;;;;;;5017938;28;98232;-78
2023/03/01 08:57:46;;;;;;;13.88;9.52;;;;;;;;;;5019685;28;99401;-78
2023/03/01 09:00:14;;;;;;;10.68;9.57;;;;;;;;;;5030074;28;99167;-77
2023/03/01 09:02:41;;;;;;;12.98;9.10;;;;;;;;;;5025185;27;98288;-78
2023/03/01 09:05:07;;;;;;;11.27;9.45;;;;;;;;;;5020207;28;98861;-78
2023/03/01 09:07:34;;;;;;;10.18;8.00;;;;;;;;;;5012065;28;98291;-78
2023/03/01 09:10:00;;;;;;;8.20;7.40;;;;;;;;;;5019771;28;100279;-77
2023/03/01 09:12:26;;;;;;;28.88;7.05;;;;;;;;;;5028575;27;99957;-77
2023/03/01 09:14:53;;;;;;;10.90;8.25;;;;;;;;;;5028962;27;98534;-78
2023/03/01 09:17:21;;;;;;;8.10;7.35;;;;;;;;;;5024232;27;99316;-77
2023/03/01 09:19:48;;;;;;;8.48;7.68;;;;;;;;;;5023190;28;100353;-77
2023/03/01 09:22:14;;;;;;;8.32;7.05;;;;;;;;;;5025124;27;98476;-77
2023/03/01 09:24:41;;;;;;;7.35;6.22;;;;;;;;;;5022823;27;98889;-78
2023/03/01 09:27:08;;;;;;;6.22;5.43;;;;;;;;;;5025507;28;99711;-78
2023/03/01 09:29:37;;;;;;;5.20;3.67;;;;;;;;;;5028195;27;99876;-77
2023/03/01 09:32:03;;;;;;;8.75;5.55;;;;;;;;;;5024708;27;99463;-77
2023/03/01 09:34:30;;;;;;;6.80;6.18;;;;;;;;;;5022632;27;98373;-77
2023/03/01 09:36:57;;;;;;;10.73;5.50;;;;;;;;;;5022322;28;98557;-77
2023/03/01 09:39:23;;;;;;;6.65;3.95;;;;;;;;;;5020764;28;99162;-75
2023/03/01 09:41:53;;;;;;;8.07;5.65;;;;;;;;;;5020695;27;99854;-77
2023/03/01 09:44:41;;;;;;;10.32;6.63;;;;;;;;;;5027029;28;99763;-77
2023/03/01 09:47:15;;;;;;;6.85;5.40;;;;;;;;;;5020970;27;98970;-76
2023/03/01 09:49:48;;;;;;;5.40;4.47;;;;;;;;;;5024789;28;99599;-77
2023/03/01 09:52:19;;;;;;;7.60;4.68;;;;;;;;;;5020319;27;99443;-76
2023/03/01 09:54:46;;;;;;;4.00;3.70;;;;;;;;;;5023297;27;99639;-77
2023/03/01 09:57:27;;;;;;;3.78;3.50;;;;;;;;;;5023895;28;99596;-77
2023/03/01 10:00:00;;;;;;;10.27;3.78;;;;;;;;;;5027469;28;99197;-77
2023/03/01 10:02:38;;;;;;;3.40;3.10;;;;;;;;;;5013943;27;99207;-75
2023/03/01 10:05:23;;;;;;;6.10;4.10;;;;;;;;;;5010171;28;99553;-75
2023/03/01 10:07:58;;;;;;;5.05;3.45;;;;;;;;;;5028037;28;98908;-75
2023/03/01 10:10:31;;;;;;;3.70;3.40;;;;;;;;;;5024191;28;99576;-75
2023/03/01 10:12:59;;;;;;;6.43;4.03;;;;;;;;;;5028898;27;99098;-76
2023/03/01 10:15:35;;;;;;;2.65;2.45;;;;;;;;;;5029929;27;98194;-76
2023/03/01 10:18:09;;;;;;;3.97;3.58;;;;;;;;;;5024820;27;99730;-76
2023/03/01 10:20:42;;;;;;;2.53;2.20;;;;;;;;;;5025348;28;100122;-76
2023/03/01 10:23:08;;;;;;;4.10;3.70;;;;;;;;;;5027591;27;99132;-76
2023/03/01 10:25:38;;;;;;;2.78;2.58;;;;;;;;;;5027756;27;99764;-77
2023/03/01 10:28:25;;;;;;;3.78;3.33;;;;;;;;;;5025882;28;99922;-76
2023/03/01 10:30:53;;;;;;;8.32;3.58;;;;;;;;;;5012561;28;98180;-76
2023/03/01 10:33:28;;;;;;;4.20;2.35;;;;;;;;;;5007585;28;99021;-76
2023/03/01 10:35:55;;;;;;;5.85;3.47;;;;;;;;;;5007503;28;98287;-76
2023/03/01 10:38:21;;;;;;;4.63;3.47;;;;;;;;;;5008557;28;98671;-76
2023/03/01 10:40:51;;;;;;;2.92;2.60;;;;;;;;;;5008153;28;100150;-76
2023/03/01 10:43:18;;;;;;;3.10;2.90;;;;;;;;;;5013122;27;98359;-76
2023/03/01 10:45:47;;;;;;;6.15;3.25;;;;;;;;;;5031688;27;98661;-76
2023/03/01 10:48:15;;;;;;;3.40;2.80;;;;;;;;;;5031251;27;98932;-76
2023/03/01 10:50:43;;;;;;;4.50;3.28;;;;;;;;;;5031348;27;98627;-76
2023/03/01 10:53:28;;;;;;;4.35;2.90;;;;;;;;;;5034134;28;99572;-76
2023/03/01 10:55:59;;;;;;;3.60;3.22;;;;;;;;;;5031356;27;98269;-76
2023/03/01 10:58:26;;;;;;;3.30;2.22;;;;;;;;;;5029952;27;98631;-77
2023/03/01 11:00:56;;;;;;;3.10;2.72;;;;;;;;;;5029751;27;98901;-76
2023/03/01 11:03:43;;;;;;;3.03;2.70;;;;;;;;;;5031709;27;98140;-76
2023/03/01 11:06:12;;;;;;;4.00;2.97;;;;;;;;;;5031888;27;99490;-76
2023/03/01 11:08:43;;;;;;;3.00;2.80;;;;;;;;;;5029236;27;99151;-76
2023/03/01 11:11:31;;;;;;;3.50;2.58;;;;;;;;;;5032070;27;98187;-76
2023/03/01 11:14:16;;;;;;;2.58;2.38;;;;;;;;;;5032068;27;98721;-76
2023/03/01 11:17:00;;;;;;;3.33;3.03;;;;;;;;;;5035240;27;98205;-76
2023/03/01 11:19:27;;;;;;;3.10;2.70;;;;;;;;;;5033178;28;99415;-76
2023/03/01 11:21:53;;;;;;;3.75;3.45;;;;;;;;;;5031813;28;100010;-77
2023/03/01 11:24:22;;;;;;;3.58;3.15;;;;;;;;;;5032357;27;98250;-77
2023/03/01 11:26:54;;;;;;;6.22;5.28;;;;;;;;;;5014567;27;99440;-78
2023/03/01 11:29:26;;;;;;;5.63;3.05;;;;;;;;;;5010986;28;99991;-78
2023/03/01 11:31:56;;;;;;;2.35;2.25;;;;;;;;;;5016935;28;98088;-77
2023/03/01 11:34:27;;;;;;;4.22;3.33;;;;;;;;;;5021892;28;99868;-77
2023/03/01 11:36:56;;;;;;;3.15;2.72;;;;;;;;;;5033336;27;99013;-78
2023/03/01 11:39:31;;;;;;;2.47;2.22;;;;;;;;;;5011317;28;98444;-77
2023/03/01 11:42:04;;;;;;;2.92;2.72;;;;;;;;;;5027435;28;99512;-78
2023/03/01 11:44:44;;;;;;;3.58;2.95;;;;;;;;;;5031128;28;98161;-77
2023/03/01 11:47:13;;;;;;;3.28;3.08;;;;;;;;;;5030779;27;98415;-77
2023/03/01 11:49:46;;;;;;;3.00;2.72;;;;;;;;;;5028972;28;99408;-79
2023/03/01 11:52:18;;;;;;;2.45;2.35;;;;;;;;;;5024887;28;98506;-79
2023/03/01 11:54:47;;;;;;;6.35;2.80;;;;;;;;;;5027998;27;99440;-79
2023/03/01 11:57:36;;;;;;;2.95;2.75;;;;;;;;;;5025049;28;100408;-80
2023/03/01 12:00:09;;;;;;;;;;;;;;;;;;5024744;28;98045;-79
2023/03/01 12:02:51;;;;;;;2.20;2.10;;;;;;;;;;5025439;28;129076;-78
2023/03/01 12:05:32;;;;;;;7.18;3.67;;;;;;;;;;5025652;27;98787;-78
2023/03/01 12:08:08;;;;;;;7.35;3.10;;;;;;;;;;5025135;27;98923;-76
2023/03/01 12:10:34;;;;;;;2.97;2.78;;;;;;;;;;5026447;27;98988;-77
2023/03/01 12:13:06;;;;;;;2.67;2.45;;;;;;;;;;5026885;28;98320;-76
2023/03/01 12:15:39;;;;;;;3.85;3.25;;;;;;;;;;5029898;28;99548;-77
2023/03/01 12:18:11;;;;;;;3.95;3.65;;;;;;;;;;5023931;27;99155;-77
2023/03/01 12:20:46;;;;;;;3.50;3.30;;;;;;;;;;5012029;28;98771;-77
2023/03/01 12:23:24;;;;;;;3.22;3.00;;;;;;;;;;5032949;28;98750;-77
2023/03/01 12:25:53;;;;;;;3.80;3.40;;;;;;;;;;5028164;28;98533;-77
2023/03/01 12:28:31;;;;;;;3.42;3.13;;;;;;;;;;5031313;28;98592;-77
2023/03/01 12:31:03;;;;;;;3.30;3.08;;;;;;;;;;5031661;27;99961;-76
2023/03/01 12:33:44;;;;;;;3.65;3.15;;;;;;;;;;5020069;27;98243;-77
2023/03/01 12:36:12;;;;;;;8.30;3.95;;;;;;;;;;5031167;27;98354;-77
2023/03/01 12:38:41;;;;;;;5.57;3.47;;;;;;;;;;5030048;27;100100;-76
2023/03/01 12:41:25;;;;;;;3.05;2.75;;;;;;;;;;5023114;28;99465;-77
2023/03/01 12:44:10;;;;;;;2.63;2.53;;;;;;;;;;5029109;27;99402;-77
2023/03/01 12:46:48;;;;;;;5.60;3.83;;;;;;;;;;5033431;28;99965;-76
2023/03/01 12:49:25;;;;;;;5.18;3.00;;;;;;;;;;5026957;27;98965;-76
2023/03/01 12:52:00;;;;;;;2.95;2.75;;;;;;;;;;5010990;28;100370;-76
2023/03/01 12:54:29;;;;;;;6.85;2.88;;;;;;;;;;5028388;28;98245;-77
2023/03/01 12:56:56;;;;;;;3.17;2.97;;;;;;;;;;5030283;28;99478;-77
2023/03/01 12:59:32;;;;;;;3.80;2.55;;;;;;;;;;5030958;27;99232;-77
2023/03/01 13:02:15;;;;;;;5.93;3.40;;;;;;;;;;5029276;28;98823;-74
2023/03/01 13:05:07;;;;;;;3.25;3.05;;;;;;;;;;5028622;28;99499;-77
2023/03/01 13:07:37;;;;;;;3.60;3.40;;;;;;;;;;5026346;27;98683;-76
2023/03/01 13:10:03;;;;;;;2.50;2.30;;;;;;;;;;5032194;28;98312;-76
2023/03/01 13:12:48;;;;;;;3.63;3.25;;;;;;;;;;5030128;27;99893;-75
2023/03/01 13:15:35;;;;;;;3.72;3.22;;;;;;;;;;5027478;27;98428;-72
2023/03/01 13:18:03;;;;;;;3.35;2.80;;;;;;;;;;5029820;27;98848;-75
2023/03/01 13:20:49;;;;;;;3.35;3.05;;;;;;;;;;5023248;27;99889;-75
2023/03/01 13:23:21;;;;;;;4.07;3.67;;;;;;;;;;5026498;27;98223;-75
2023/03/01 13:26:00;;;;;;;8.00;3.25;;;;;;;;;;5027089;28;99429;-75
2023/03/01 13:28:40;;;;;;;4.40;3.35;;;;;;;;;;5027387;28;99057;-75
2023/03/01 13:31:08;;;;;;;2.83;2.63;;;;;;;;;;5016715;27;98129;-75
2023/03/01 13:33:40;;;;;;;3.05;2.70;;;;;;;;;;5026261;28;98447;-76
2023/03/01 13:36:08;;;;;;;3.63;2.53;;;;;;;;;;5022545;27;98393;-76
2023/03/01 13:38:41;;;;;;;3.30;3.00;;;;;;;;;;5026585;27;98616;-77
2023/03/01 13:41:08;;;;;;;4.38;3.40;;;;;;;;;;5027659;27;98998;-77
2023/03/01 13:43:36;;;;;;;3.80;3.50;;;;;;;;;;5025430;27;98384;-78
2023/03/01 13:46:15;;;;;;;5.95;3.63;;;;;;;;;;5029795;27;99276;-75
2023/03/01 13:48:42;;;;;;;4.43;3.80;;;;;;;;;;5017599;27;98957;-76
2023/03/01 13:51:10;;;;;;;3.50;3.22;;;;;;;;;;5017486;27;99051;-76
2023/03/01 13:53:41;;;;;;;3.17;2.83;;;;;;;;;;5023331;27;99520;-78
2023/03/01 13:56:09;;;;;;;5.53;3.17;;;;;;;;;;5016130;27;99638;-77
2023/03/01 13:58:56;;;;;;;4.18;3.80;;;;;;;;;;5025199;28;99880;-77
2023/03/01 14:01:26;;;;;;;4.25;3.88;;;;;;;;;;5027980;27;100462;-78
2023/03/01 14:03:52;;;;;;;3.72;3.45;;;;;;;;;;5028075;27;98310;-78
2023/03/01 14:06:21;;;;;;;3.05;2.85;;;;;;;;;;5029123;28;98481;-80
2023/03/01 14:08:49;;;;;;;3.30;3.00;;;;;;;;;;5030260;27;99690;-79
2023/03/01 14:11:18;;;;;;;5.35;3.60;;;;;;;;;;5026362;27;98305;-79
2023/03/01 14:13:51;;;;;;;3.75;3.55;;;;;;;;;;5030285;27;98729;-79
2023/03/01 14:16:30;;;;;;;3.40;3.13;;;;;;;;;;5028234;28;99937;-78
2023/03/01 14:19:05;;;;;;;3.88;3.58;;;;;;;;;;5019270;28;98449;-79
2023/03/01 14:21:32;;;;;;;2.90;2.78;;;;;;;;;;5028660;28;99036;-77
2023/03/01 14:23:59;;;;;;;4.95;3.08;;;;;;;;;;5027634;28;99661;-78
2023/03/01 14:26:25;;;;;;;3.40;3.17;;;;;;;;;;5031181;27;98503;-77
2023/03/01 14:28:52;;;;;;;9.02;3.25;;;;;;;;;;5029407;27;99840;-78
2023/03/01 14:31:38;;;;;;;3.38;3.08;;;;;;;;;;5012433;28;98360;-78
2023/03/01 14:34:22;;;;;;;8.18;3.45;;;;;;;;;;5013166;28;99729;-75
2023/03/01 14:36:49;;;;;;;4.28;3.88;;;;;;;;;;5012669;28;99992;-79
2023/03/01 14:39:23;;;;;;;4.30;3.90;;;;;;;;;;5015812;28;98732;-78
2023/03/01 14:41:50;;;;;;;3.92;3.63;;;;;;;;;;5013662;28;99945;-78